DAL0524 KSLC-KLAX
Flight info
| Callsign | DAL0524 |
|---|---|
| Flight time | 1h 32m |
| Altitude | 36000 |
| Route | DCT WINEN DCT LAKRR DCT HAKMN ANJLL4 |
| Aircraft | A321/H-V/N |
Departure
| Time | 2026-04-20 19:39 |
|---|---|
| Airport | Salt Lake City International Airport (KSLC) |
Arrival
| Time | 2026-04-20 21:11 |
|---|---|
| Airport | Los Angeles International Airport (KLAX) |
| Time | Latitude | Longitude | Altitude | Speed | Heading |
|---|---|---|---|---|---|
| 2026-04-20 18:51 | 40.78658 | -111.98206 | 4236 ft | 0 kts | 175° |
| 2026-04-20 19:23 | 40.78677 | -111.98208 | 4235 ft | 4 kts | 183° |
| 2026-04-20 19:23 | 40.78703 | -111.98202 | 4234 ft | 4 kts | 203° |
| 2026-04-20 19:24 | 40.78724 | -111.98184 | 4232 ft | 4 kts | 245° |
| 2026-04-20 19:24 | 40.78728 | -111.98166 | 4235 ft | 1 kts | 266° |
| 2026-04-20 19:24 | 40.78728 | -111.98164 | 4235 ft | 0 kts | 266° |
| 2026-04-20 19:28 | 40.78735 | -111.98202 | 4234 ft | 4 kts | 309° |
| 2026-04-20 19:28 | 40.78804 | -111.98197 | 4234 ft | 12 kts | 8° |
| 2026-04-20 19:28 | 40.78818 | -111.98190 | 4234 ft | 2 kts | 52° |
| 2026-04-20 19:29 | 40.78792 | -111.98127 | 4234 ft | 15 kts | 118° |
| 2026-04-20 19:29 | 40.78791 | -111.98023 | 4236 ft | 11 kts | 70° |
| 2026-04-20 19:29 | 40.78811 | -111.97925 | 4237 ft | 11 kts | 85° |
| 2026-04-20 19:29 | 40.78823 | -111.97821 | 4237 ft | 12 kts | 78° |
| 2026-04-20 19:30 | 40.78828 | -111.97749 | 4236 ft | 0 kts | 86° |
| 2026-04-20 19:30 | 40.78828 | -111.97747 | 4236 ft | 0 kts | 86° |
| 2026-04-20 19:31 | 40.78828 | -111.97746 | 4236 ft | 0 kts | 86° |
| 2026-04-20 19:31 | 40.78828 | -111.97742 | 4236 ft | 4 kts | 82° |
| 2026-04-20 19:31 | 40.78860 | -111.97702 | 4236 ft | 8 kts | 15° |
| 2026-04-20 19:32 | 40.78915 | -111.97701 | 4238 ft | 8 kts | 359° |
| 2026-04-20 19:32 | 40.78983 | -111.97707 | 4237 ft | 11 kts | 355° |
| 2026-04-20 19:32 | 40.79022 | -111.97711 | 4238 ft | 12 kts | 355° |
| 2026-04-20 19:32 | 40.79124 | -111.97723 | 4235 ft | 18 kts | 354° |
| 2026-04-20 19:33 | 40.79259 | -111.97740 | 4232 ft | 20 kts | 354° |
| 2026-04-20 19:33 | 40.79395 | -111.97755 | 4231 ft | 13 kts | 355° |
| 2026-04-20 19:33 | 40.79494 | -111.97766 | 4229 ft | 18 kts | 354° |
| 2026-04-20 19:33 | 40.79636 | -111.97783 | 4229 ft | 22 kts | 355° |
| 2026-04-20 19:34 | 40.79725 | -111.97793 | 4231 ft | 13 kts | 354° |
| 2026-04-20 19:34 | 40.79812 | -111.97804 | 4232 ft | 13 kts | 354° |
| 2026-04-20 19:34 | 40.79915 | -111.97815 | 4235 ft | 16 kts | 355° |
| 2026-04-20 19:34 | 40.80029 | -111.97829 | 4237 ft | 18 kts | 355° |
| 2026-04-20 19:35 | 40.80160 | -111.97843 | 4239 ft | 20 kts | 355° |
| 2026-04-20 19:35 | 40.80304 | -111.97861 | 4241 ft | 21 kts | 354° |
| 2026-04-20 19:35 | 40.80465 | -111.97880 | 4237 ft | 26 kts | 355° |
| 2026-04-20 19:35 | 40.80618 | -111.97898 | 4236 ft | 17 kts | 354° |
| 2026-04-20 19:36 | 40.80716 | -111.97894 | 4234 ft | 10 kts | 27° |
| 2026-04-20 19:36 | 40.80731 | -111.97878 | 4234 ft | 0 kts | 51° |
| 2026-04-20 19:36 | 40.80731 | -111.97876 | 4234 ft | 0 kts | 55° |
| 2026-04-20 19:37 | 40.80738 | -111.97862 | 4233 ft | 9 kts | 59° |
| 2026-04-20 19:38 | 40.80756 | -111.97810 | 4232 ft | 0 kts | 68° |
| 2026-04-20 19:38 | 40.80737 | -111.97743 | 4232 ft | 13 kts | 129° |
| 2026-04-20 19:38 | 40.80631 | -111.97679 | 4234 ft | 25 kts | 173° |
| 2026-04-20 19:38 | 40.80262 | -111.97638 | 4239 ft | 95 kts | 175° |
| 2026-04-20 19:39 | 40.79304 | -111.97524 | 4234 ft | 177 kts | 174° |
| 2026-04-20 19:39 | 40.77983 | -111.97416 | 4856 ft | 196 kts | 177° |
| 2026-04-20 19:39 | 40.76582 | -111.97281 | 5938 ft | 207 kts | 175° |
| 2026-04-20 19:39 | 40.75142 | -111.97111 | 6995 ft | 211 kts | 175° |
| 2026-04-20 19:40 | 40.73661 | -111.96907 | 7969 ft | 216 kts | 175° |
| 2026-04-20 19:40 | 40.72149 | -111.96645 | 9087 ft | 221 kts | 174° |
| 2026-04-20 19:40 | 40.70609 | -111.96320 | 10207 ft | 226 kts | 172° |
| 2026-04-20 19:40 | 40.69051 | -111.95918 | 11304 ft | 229 kts | 170° |
| 2026-04-20 19:41 | 40.67451 | -111.95589 | 12142 ft | 240 kts | 185° |
| 2026-04-20 19:41 | 40.66326 | -111.95778 | 12674 ft | 249 kts | 191° |
| 2026-04-20 19:41 | 40.63953 | -111.96023 | 13838 ft | 264 kts | 185° |
| 2026-04-20 19:41 | 40.62720 | -111.96068 | 14426 ft | 269 kts | 183° |
| 2026-04-20 19:42 | 40.60815 | -111.96061 | 15328 ft | 273 kts | 181° |
| 2026-04-20 19:42 | 40.58887 | -111.95996 | 16214 ft | 279 kts | 181° |
| 2026-04-20 19:42 | 40.56290 | -111.95862 | 17321 ft | 286 kts | 180° |
| 2026-04-20 19:42 | 40.54939 | -111.95781 | 17922 ft | 288 kts | 180° |
| 2026-04-20 19:43 | 40.52239 | -111.95610 | 18865 ft | 297 kts | 179° |
| 2026-04-20 19:43 | 40.50172 | -111.95474 | 19522 ft | 303 kts | 180° |
| 2026-04-20 19:43 | 40.48010 | -111.95333 | 19994 ft | 318 kts | 180° |
| 2026-04-20 19:43 | 40.45763 | -111.95185 | 20517 ft | 331 kts | 179° |
| 2026-04-20 19:44 | 40.43409 | -111.95022 | 21064 ft | 343 kts | 179° |
| 2026-04-20 19:44 | 40.41798 | -111.94911 | 21431 ft | 351 kts | 179° |
| 2026-04-20 19:44 | 40.38506 | -111.94682 | 22178 ft | 364 kts | 180° |
| 2026-04-20 19:44 | 40.35940 | -111.94505 | 22779 ft | 372 kts | 180° |
| 2026-04-20 19:45 | 40.34201 | -111.94384 | 23176 ft | 377 kts | 180° |
| 2026-04-20 19:45 | 40.30670 | -111.94141 | 23926 ft | 387 kts | 180° |
| 2026-04-20 19:45 | 40.28869 | -111.94018 | 24268 ft | 391 kts | 180° |
| 2026-04-20 19:45 | 40.26139 | -111.94044 | 24779 ft | 394 kts | 186° |
| 2026-04-20 19:46 | 40.23380 | -111.94396 | 25301 ft | 398 kts | 189° |
| 2026-04-20 19:46 | 40.20639 | -111.94827 | 25825 ft | 401 kts | 189° |
| 2026-04-20 19:46 | 40.17846 | -111.95277 | 26358 ft | 405 kts | 189° |
| 2026-04-20 19:46 | 40.15023 | -111.95729 | 26900 ft | 407 kts | 189° |
| 2026-04-20 19:47 | 40.12230 | -111.96160 | 27442 ft | 409 kts | 189° |
| 2026-04-20 19:47 | 40.09392 | -111.96581 | 28002 ft | 410 kts | 189° |
| 2026-04-20 19:47 | 40.06567 | -111.96995 | 28510 ft | 411 kts | 189° |
| 2026-04-20 19:47 | 40.03722 | -111.97412 | 29098 ft | 411 kts | 189° |
| 2026-04-20 19:48 | 40.00863 | -111.97830 | 29705 ft | 410 kts | 189° |
| 2026-04-20 19:48 | 39.98064 | -111.98239 | 30261 ft | 409 kts | 189° |
| 2026-04-20 19:48 | 39.95228 | -111.98653 | 30786 ft | 407 kts | 189° |
| 2026-04-20 19:48 | 39.92413 | -111.99064 | 31316 ft | 405 kts | 189° |
| 2026-04-20 19:49 | 39.89610 | -111.99473 | 31868 ft | 403 kts | 189° |
| 2026-04-20 19:49 | 39.86864 | -111.99873 | 32414 ft | 399 kts | 189° |
| 2026-04-20 19:49 | 39.84104 | -112.00275 | 32973 ft | 396 kts | 189° |
| 2026-04-20 19:49 | 39.81374 | -112.00672 | 33548 ft | 391 kts | 190° |
| 2026-04-20 19:50 | 39.78710 | -112.01059 | 34108 ft | 386 kts | 190° |
| 2026-04-20 19:50 | 39.76043 | -112.01446 | 34616 ft | 380 kts | 190° |
| 2026-04-20 19:50 | 39.73427 | -112.01825 | 35132 ft | 373 kts | 190° |
| 2026-04-20 19:50 | 39.70899 | -112.02191 | 35625 ft | 367 kts | 190° |
| 2026-04-20 19:51 | 39.68367 | -112.02560 | 35866 ft | 368 kts | 191° |
| 2026-04-20 19:51 | 39.63170 | -112.03321 | 35911 ft | 383 kts | 191° |
| 2026-04-20 19:52 | 39.57766 | -112.04106 | 35915 ft | 398 kts | 190° |
| 2026-04-20 19:52 | 39.52167 | -112.04916 | 35915 ft | 414 kts | 190° |
| 2026-04-20 19:53 | 39.46318 | -112.05759 | 35914 ft | 430 kts | 189° |
| 2026-04-20 19:53 | 39.40296 | -112.06616 | 35897 ft | 444 kts | 189° |
| 2026-04-20 19:54 | 39.34031 | -112.07504 | 35904 ft | 459 kts | 189° |
| 2026-04-20 19:54 | 39.27602 | -112.08415 | 35912 ft | 473 kts | 189° |
| 2026-04-20 19:55 | 39.20935 | -112.09358 | 35926 ft | 486 kts | 189° |
| 2026-04-20 19:55 | 39.14222 | -112.10556 | 36364 ft | 483 kts | 194° |
| 2026-04-20 19:55 | 39.10893 | -112.11376 | 36494 ft | 486 kts | 193° |
| 2026-04-20 19:56 | 39.07560 | -112.12120 | 36593 ft | 485 kts | 193° |
| 2026-04-20 19:56 | 39.04358 | -112.12993 | 36519 ft | 466 kts | 198° |
| 2026-04-20 19:56 | 39.01306 | -112.14220 | 36523 ft | 452 kts | 204° |
| 2026-04-20 19:57 | 38.95767 | -112.17805 | 36534 ft | 442 kts | 216° |
| 2026-04-20 19:57 | 38.91007 | -112.22665 | 36541 ft | 437 kts | 227° |
| 2026-04-20 19:58 | 38.86722 | -112.28141 | 36544 ft | 436 kts | 230° |
| 2026-04-20 19:58 | 38.82508 | -112.33800 | 36535 ft | 436 kts | 230° |
| 2026-04-20 19:59 | 38.78324 | -112.39415 | 36515 ft | 436 kts | 230° |
| 2026-04-20 19:59 | 38.74116 | -112.45013 | 36501 ft | 444 kts | 229° |
| 2026-04-20 20:00 | 38.69742 | -112.50801 | 36489 ft | 456 kts | 229° |
| 2026-04-20 20:00 | 38.67543 | -112.53699 | 36622 ft | 458 kts | 229° |
| 2026-04-20 20:00 | 38.65309 | -112.56639 | 36805 ft | 460 kts | 229° |
| 2026-04-20 20:00 | 38.63097 | -112.59547 | 37005 ft | 460 kts | 229° |
| 2026-04-20 20:01 | 38.60858 | -112.62487 | 37249 ft | 460 kts | 229° |
| 2026-04-20 20:01 | 38.58617 | -112.65429 | 37511 ft | 460 kts | 229° |
| 2026-04-20 20:01 | 38.56395 | -112.68344 | 37761 ft | 459 kts | 229° |
| 2026-04-20 20:01 | 38.54156 | -112.71279 | 37978 ft | 460 kts | 229° |
| 2026-04-20 20:02 | 38.51931 | -112.74197 | 37962 ft | 465 kts | 229° |
| 2026-04-20 20:02 | 38.47346 | -112.80189 | 38142 ft | 468 kts | 228° |
| 2026-04-20 20:02 | 38.45111 | -112.83109 | 37556 ft | 463 kts | 229° |
| 2026-04-20 20:03 | 38.42873 | -112.86066 | 36898 ft | 460 kts | 229° |
| 2026-04-20 20:03 | 38.40660 | -112.88970 | 36250 ft | 458 kts | 229° |
| 2026-04-20 20:03 | 38.38442 | -112.91859 | 35608 ft | 452 kts | 228° |
| 2026-04-20 20:03 | 38.36267 | -112.94677 | 35601 ft | 436 kts | 228° |
| 2026-04-20 20:04 | 38.34153 | -112.97410 | 35727 ft | 432 kts | 228° |
| 2026-04-20 20:04 | 38.32038 | -113.00152 | 35891 ft | 434 kts | 229° |
| 2026-04-20 20:04 | 38.29936 | -113.02879 | 35991 ft | 436 kts | 229° |
| 2026-04-20 20:05 | 38.25683 | -113.08392 | 35971 ft | 434 kts | 229° |
| 2026-04-20 20:05 | 38.21464 | -113.13854 | 35939 ft | 433 kts | 228° |
| 2026-04-20 20:06 | 38.17228 | -113.19324 | 35908 ft | 432 kts | 228° |
| 2026-04-20 20:06 | 38.13016 | -113.24751 | 35873 ft | 432 kts | 228° |
| 2026-04-20 20:07 | 38.08795 | -113.30182 | 35867 ft | 432 kts | 228° |
| 2026-04-20 20:07 | 38.04579 | -113.35599 | 35865 ft | 433 kts | 228° |
| 2026-04-20 20:08 | 38.00312 | -113.41071 | 35932 ft | 434 kts | 228° |
| 2026-04-20 20:08 | 37.96061 | -113.46473 | 35942 ft | 432 kts | 225° |
| 2026-04-20 20:09 | 37.91099 | -113.50758 | 35956 ft | 438 kts | 207° |
| 2026-04-20 20:09 | 37.85395 | -113.53596 | 35962 ft | 441 kts | 202° |
| 2026-04-20 20:10 | 37.79596 | -113.56087 | 35960 ft | 442 kts | 201° |
| 2026-04-20 20:10 | 37.73750 | -113.58552 | 35968 ft | 442 kts | 201° |
| 2026-04-20 20:11 | 37.67950 | -113.61038 | 35969 ft | 442 kts | 201° |
| 2026-04-20 20:11 | 37.62149 | -113.63547 | 35985 ft | 442 kts | 202° |
| 2026-04-20 20:12 | 37.56309 | -113.66073 | 35980 ft | 442 kts | 201° |
| 2026-04-20 20:12 | 37.50501 | -113.68573 | 35983 ft | 443 kts | 201° |
| 2026-04-20 20:13 | 37.41747 | -113.72339 | 35984 ft | 443 kts | 202° |
| 2026-04-20 20:13 | 37.35936 | -113.74840 | 35983 ft | 443 kts | 201° |
| 2026-04-20 20:14 | 37.30090 | -113.77344 | 35976 ft | 440 kts | 201° |
| 2026-04-20 20:14 | 37.24318 | -113.79820 | 35980 ft | 439 kts | 201° |
| 2026-04-20 20:15 | 37.18516 | -113.82304 | 35979 ft | 439 kts | 201° |
| 2026-04-20 20:15 | 37.12747 | -113.84767 | 35981 ft | 439 kts | 201° |
| 2026-04-20 20:16 | 37.06972 | -113.87231 | 35972 ft | 439 kts | 201° |
| 2026-04-20 20:16 | 37.01185 | -113.89693 | 35970 ft | 440 kts | 201° |
| 2026-04-20 20:17 | 36.95356 | -113.92164 | 35960 ft | 440 kts | 201° |
| 2026-04-20 20:17 | 36.89581 | -113.94617 | 35955 ft | 440 kts | 200° |
| 2026-04-20 20:18 | 36.83790 | -113.97070 | 35947 ft | 440 kts | 201° |
| 2026-04-20 20:18 | 36.77983 | -113.99527 | 35950 ft | 440 kts | 200° |
| 2026-04-20 20:19 | 36.72210 | -114.01963 | 35941 ft | 440 kts | 201° |
| 2026-04-20 20:19 | 36.66385 | -114.04416 | 35936 ft | 440 kts | 201° |
| 2026-04-20 20:20 | 36.60603 | -114.06851 | 35938 ft | 440 kts | 201° |
| 2026-04-20 20:20 | 36.54798 | -114.09289 | 35925 ft | 438 kts | 200° |
| 2026-04-20 20:21 | 36.49061 | -114.11694 | 35918 ft | 437 kts | 200° |
| 2026-04-20 20:21 | 36.43265 | -114.14122 | 35906 ft | 437 kts | 200° |
| 2026-04-20 20:22 | 36.37525 | -114.16523 | 35901 ft | 437 kts | 200° |
| 2026-04-20 20:22 | 36.31775 | -114.18924 | 35896 ft | 437 kts | 201° |
| 2026-04-20 20:23 | 36.25994 | -114.21332 | 35891 ft | 436 kts | 200° |
| 2026-04-20 20:23 | 36.20246 | -114.23725 | 35893 ft | 436 kts | 200° |
| 2026-04-20 20:24 | 36.14498 | -114.26118 | 35889 ft | 436 kts | 200° |
| 2026-04-20 20:24 | 36.09044 | -114.29238 | 35880 ft | 433 kts | 215° |
| 2026-04-20 20:25 | 36.04545 | -114.34132 | 35886 ft | 430 kts | 229° |
| 2026-04-20 20:25 | 36.00539 | -114.39667 | 35885 ft | 431 kts | 229° |
| 2026-04-20 20:26 | 35.96573 | -114.45182 | 35887 ft | 429 kts | 229° |
| 2026-04-20 20:26 | 35.92622 | -114.50651 | 35911 ft | 429 kts | 229° |
| 2026-04-20 20:27 | 35.88641 | -114.56149 | 35922 ft | 428 kts | 229° |
| 2026-04-20 20:27 | 35.84686 | -114.61603 | 35877 ft | 428 kts | 229° |
| 2026-04-20 20:28 | 35.80721 | -114.67058 | 35922 ft | 428 kts | 229° |
| 2026-04-20 20:28 | 35.76750 | -114.72513 | 35926 ft | 428 kts | 229° |
| 2026-04-20 20:29 | 35.72765 | -114.77976 | 35945 ft | 428 kts | 229° |
| 2026-04-20 20:29 | 35.68776 | -114.83439 | 35950 ft | 428 kts | 229° |
| 2026-04-20 20:30 | 35.64810 | -114.88864 | 35952 ft | 428 kts | 229° |
| 2026-04-20 20:30 | 35.61489 | -114.93398 | 35955 ft | 428 kts | 229° |
| 2026-04-20 20:31 | 35.57492 | -114.98844 | 35952 ft | 428 kts | 229° |
| 2026-04-20 20:31 | 35.53417 | -115.04392 | 35959 ft | 426 kts | 228° |
| 2026-04-20 20:32 | 35.49543 | -115.09601 | 35961 ft | 425 kts | 227° |
| 2026-04-20 20:32 | 35.45494 | -115.14897 | 35962 ft | 424 kts | 227° |
| 2026-04-20 20:33 | 35.41451 | -115.20173 | 35966 ft | 426 kts | 227° |
| 2026-04-20 20:33 | 35.37382 | -115.25475 | 35967 ft | 426 kts | 227° |
| 2026-04-20 20:34 | 35.33332 | -115.30746 | 35975 ft | 426 kts | 227° |
| 2026-04-20 20:34 | 35.29266 | -115.36032 | 35972 ft | 424 kts | 226° |
| 2026-04-20 20:35 | 35.25236 | -115.41262 | 35970 ft | 421 kts | 226° |
| 2026-04-20 20:35 | 35.21228 | -115.46453 | 35972 ft | 421 kts | 226° |
| 2026-04-20 20:36 | 35.17192 | -115.51676 | 35966 ft | 422 kts | 226° |
| 2026-04-20 20:36 | 35.13172 | -115.56868 | 35963 ft | 422 kts | 226° |
| 2026-04-20 20:37 | 35.09121 | -115.62067 | 35966 ft | 421 kts | 225° |
| 2026-04-20 20:37 | 35.05086 | -115.67226 | 35956 ft | 422 kts | 225° |
| 2026-04-20 20:38 | 35.01035 | -115.72397 | 35959 ft | 422 kts | 225° |
| 2026-04-20 20:38 | 34.96967 | -115.77583 | 35948 ft | 422 kts | 225° |
| 2026-04-20 20:39 | 34.92922 | -115.82732 | 35948 ft | 422 kts | 225° |
| 2026-04-20 20:39 | 34.88853 | -115.87904 | 35947 ft | 422 kts | 225° |
| 2026-04-20 20:40 | 34.84786 | -115.93066 | 35939 ft | 423 kts | 225° |
| 2026-04-20 20:40 | 34.80715 | -115.98230 | 35942 ft | 422 kts | 225° |
| 2026-04-20 20:41 | 34.76667 | -116.03359 | 35936 ft | 421 kts | 225° |
| 2026-04-20 20:41 | 34.72610 | -116.08528 | 35937 ft | 420 kts | 225° |
| 2026-04-20 20:42 | 34.68582 | -116.13656 | 35934 ft | 420 kts | 225° |
| 2026-04-20 20:42 | 34.64537 | -116.18796 | 35936 ft | 420 kts | 225° |
| 2026-04-20 20:43 | 34.60507 | -116.23911 | 35936 ft | 420 kts | 225° |
| 2026-04-20 20:43 | 34.56489 | -116.29005 | 35942 ft | 418 kts | 225° |
| 2026-04-20 20:44 | 34.52473 | -116.34086 | 35942 ft | 417 kts | 225° |
| 2026-04-20 20:44 | 34.48435 | -116.39187 | 35953 ft | 417 kts | 225° |
| 2026-04-20 20:45 | 34.44425 | -116.44246 | 35954 ft | 417 kts | 225° |
| 2026-04-20 20:45 | 34.40862 | -116.49804 | 35958 ft | 419 kts | 239° |
| 2026-04-20 20:46 | 34.38205 | -116.56079 | 35966 ft | 421 kts | 241° |
| 2026-04-20 20:46 | 34.35622 | -116.62398 | 35966 ft | 418 kts | 241° |
| 2026-04-20 20:47 | 34.33038 | -116.68707 | 35979 ft | 417 kts | 242° |
| 2026-04-20 20:47 | 34.30508 | -116.75003 | 35986 ft | 416 kts | 242° |
| 2026-04-20 20:48 | 34.27974 | -116.81303 | 35989 ft | 417 kts | 242° |
| 2026-04-20 20:48 | 34.25424 | -116.87627 | 36005 ft | 417 kts | 242° |
| 2026-04-20 20:49 | 34.22891 | -116.93897 | 35998 ft | 415 kts | 242° |
| 2026-04-20 20:49 | 34.20578 | -117.00293 | 36003 ft | 417 kts | 248° |
| 2026-04-20 20:50 | 34.18762 | -117.06933 | 36003 ft | 417 kts | 249° |
| 2026-04-20 20:50 | 34.16970 | -117.13590 | 36006 ft | 417 kts | 249° |
| 2026-04-20 20:51 | 34.16066 | -117.16918 | 35704 ft | 412 kts | 249° |
| 2026-04-20 20:51 | 34.15184 | -117.20141 | 34978 ft | 406 kts | 249° |
| 2026-04-20 20:51 | 34.14294 | -117.23381 | 34017 ft | 404 kts | 249° |
| 2026-04-20 20:51 | 34.13404 | -117.26613 | 32931 ft | 402 kts | 249° |
| 2026-04-20 20:52 | 34.12532 | -117.29775 | 31934 ft | 400 kts | 249° |
| 2026-04-20 20:52 | 34.11964 | -117.33073 | 30947 ft | 402 kts | 265° |
| 2026-04-20 20:52 | 34.12278 | -117.36411 | 30020 ft | 407 kts | 283° |
| 2026-04-20 20:52 | 34.13478 | -117.39515 | 29013 ft | 411 kts | 302° |
| 2026-04-20 20:53 | 34.15434 | -117.42005 | 28122 ft | 413 kts | 320° |
| 2026-04-20 20:53 | 34.17970 | -117.43651 | 27266 ft | 413 kts | 339° |
| 2026-04-20 20:53 | 34.20793 | -117.44251 | 26432 ft | 412 kts | 358° |
| 2026-04-20 20:53 | 34.23582 | -117.43771 | 25617 ft | 410 kts | 17° |
| 2026-04-20 20:54 | 34.26136 | -117.42245 | 24766 ft | 407 kts | 37° |
| 2026-04-20 20:54 | 34.28127 | -117.39848 | 23953 ft | 401 kts | 57° |
| 2026-04-20 20:54 | 34.29342 | -117.36899 | 23115 ft | 394 kts | 76° |
| 2026-04-20 20:54 | 34.29692 | -117.33665 | 22242 ft | 384 kts | 97° |
| 2026-04-20 20:55 | 34.29106 | -117.30567 | 21695 ft | 371 kts | 118° |
| 2026-04-20 20:55 | 34.27758 | -117.28019 | 21218 ft | 358 kts | 136° |
| 2026-04-20 20:55 | 34.26018 | -117.25896 | 20734 ft | 352 kts | 142° |
| 2026-04-20 20:55 | 34.24095 | -117.24121 | 20157 ft | 341 kts | 153° |
| 2026-04-20 20:56 | 34.21973 | -117.22944 | 19378 ft | 331 kts | 167° |
| 2026-04-20 20:56 | 34.19751 | -117.22550 | 18671 ft | 323 kts | 184° |
| 2026-04-20 20:56 | 34.17541 | -117.22983 | 17928 ft | 321 kts | 200° |
| 2026-04-20 20:56 | 34.15565 | -117.24205 | 17131 ft | 325 kts | 216° |
| 2026-04-20 20:57 | 34.14005 | -117.26211 | 16351 ft | 331 kts | 236° |
| 2026-04-20 20:57 | 34.13002 | -117.28745 | 15594 ft | 335 kts | 247° |
| 2026-04-20 20:57 | 34.12264 | -117.31377 | 14851 ft | 326 kts | 250° |
| 2026-04-20 20:57 | 34.11600 | -117.33944 | 14308 ft | 313 kts | 250° |
| 2026-04-20 20:58 | 34.10969 | -117.36397 | 14079 ft | 308 kts | 250° |
| 2026-04-20 20:58 | 34.10319 | -117.38870 | 14038 ft | 308 kts | 249° |
| 2026-04-20 20:58 | 34.09655 | -117.41341 | 14040 ft | 308 kts | 249° |
| 2026-04-20 20:58 | 34.08992 | -117.43773 | 14037 ft | 307 kts | 249° |
| 2026-04-20 20:59 | 34.08324 | -117.46205 | 13574 ft | 299 kts | 249° |
| 2026-04-20 20:59 | 34.07679 | -117.48545 | 12849 ft | 294 kts | 249° |
| 2026-04-20 20:59 | 34.07164 | -117.50949 | 12080 ft | 293 kts | 255° |
| 2026-04-20 20:59 | 34.06790 | -117.53338 | 11323 ft | 292 kts | 257° |
| 2026-04-20 21:00 | 34.06437 | -117.55767 | 10704 ft | 294 kts | 257° |
| 2026-04-20 21:00 | 34.06085 | -117.58198 | 10282 ft | 292 kts | 257° |
| 2026-04-20 21:00 | 34.05738 | -117.60574 | 10083 ft | 289 kts | 257° |
| 2026-04-20 21:00 | 34.05388 | -117.62967 | 10050 ft | 290 kts | 257° |
| 2026-04-20 21:01 | 34.05035 | -117.65366 | 9798 ft | 289 kts | 257° |
| 2026-04-20 21:01 | 34.04688 | -117.67716 | 9315 ft | 288 kts | 257° |
| 2026-04-20 21:01 | 34.04337 | -117.70090 | 8843 ft | 286 kts | 256° |
| 2026-04-20 21:01 | 34.03987 | -117.72454 | 8374 ft | 284 kts | 257° |
| 2026-04-20 21:02 | 34.03640 | -117.74798 | 7909 ft | 282 kts | 256° |
| 2026-04-20 21:02 | 34.03297 | -117.77101 | 7442 ft | 281 kts | 257° |
| 2026-04-20 21:02 | 34.02952 | -117.79422 | 7004 ft | 280 kts | 257° |
| 2026-04-20 21:02 | 34.02607 | -117.81727 | 6580 ft | 278 kts | 256° |
| 2026-04-20 21:03 | 34.02268 | -117.83999 | 6193 ft | 277 kts | 257° |
| 2026-04-20 21:03 | 34.01926 | -117.86289 | 6062 ft | 276 kts | 257° |
| 2026-04-20 21:03 | 34.01584 | -117.88573 | 6054 ft | 276 kts | 257° |
| 2026-04-20 21:03 | 34.01145 | -117.90814 | 6047 ft | 271 kts | 241° |
| 2026-04-20 21:04 | 34.00258 | -117.92791 | 6060 ft | 271 kts | 244° |
| 2026-04-20 21:04 | 33.99742 | -117.94985 | 6062 ft | 275 kts | 258° |
| 2026-04-20 21:04 | 33.99496 | -117.97285 | 6053 ft | 276 kts | 261° |
| 2026-04-20 21:04 | 33.99335 | -117.99572 | 6061 ft | 277 kts | 263° |
| 2026-04-20 21:05 | 33.99140 | -118.01888 | 6061 ft | 277 kts | 259° |
| 2026-04-20 21:05 | 33.98891 | -118.04193 | 6031 ft | 277 kts | 259° |
| 2026-04-20 21:05 | 33.98644 | -118.06483 | 5804 ft | 277 kts | 260° |
| 2026-04-20 21:05 | 33.98410 | -118.08790 | 5441 ft | 276 kts | 261° |
| 2026-04-20 21:06 | 33.98183 | -118.11056 | 5043 ft | 271 kts | 261° |
| 2026-04-20 21:06 | 33.97959 | -118.13250 | 4621 ft | 255 kts | 261° |
| 2026-04-20 21:06 | 33.97749 | -118.15304 | 4184 ft | 238 kts | 261° |
| 2026-04-20 21:06 | 33.97555 | -118.17208 | 3838 ft | 222 kts | 262° |
| 2026-04-20 21:07 | 33.97372 | -118.19007 | 3551 ft | 207 kts | 261° |
| 2026-04-20 21:07 | 33.97204 | -118.20653 | 3306 ft | 191 kts | 262° |
| 2026-04-20 21:07 | 33.97050 | -118.22171 | 3070 ft | 172 kts | 261° |
| 2026-04-20 21:07 | 33.96913 | -118.23517 | 2853 ft | 154 kts | 261° |
| 2026-04-20 21:08 | 33.96790 | -118.24725 | 2677 ft | 136 kts | 261° |
| 2026-04-20 21:08 | 33.96700 | -118.25840 | 2667 ft | 129 kts | 262° |
| 2026-04-20 21:08 | 33.96614 | -118.26886 | 2614 ft | 128 kts | 260° |
| 2026-04-20 21:08 | 33.96487 | -118.28076 | 2446 ft | 159 kts | 262° |
| 2026-04-20 21:09 | 33.96364 | -118.29322 | 2354 ft | 143 kts | 259° |
| 2026-04-20 21:09 | 33.96224 | -118.30516 | 2041 ft | 147 kts | 259° |
| 2026-04-20 21:09 | 33.96086 | -118.31725 | 1800 ft | 148 kts | 260° |
| 2026-04-20 21:09 | 33.95950 | -118.33018 | 1542 ft | 157 kts | 261° |
| 2026-04-20 21:10 | 33.95826 | -118.34285 | 1275 ft | 151 kts | 262° |
| 2026-04-20 21:10 | 33.95709 | -118.35540 | 1062 ft | 155 kts | 264° |
| 2026-04-20 21:10 | 33.95569 | -118.36858 | 812 ft | 152 kts | 263° |
| 2026-04-20 21:10 | 33.95435 | -118.38101 | 571 ft | 149 kts | 261° |
| 2026-04-20 21:11 | 33.95300 | -118.39335 | 330 ft | 145 kts | 263° |
| 2026-04-20 21:11 | 33.95180 | -118.40494 | 159 ft | 135 kts | 262° |
| 2026-04-20 21:11 | 33.95077 | -118.41461 | 126 ft | 76 kts | 263° |
| 2026-04-20 21:11 | 33.95028 | -118.41755 | 127 ft | 16 kts | 248° |
| 2026-04-20 21:12 | 33.94964 | -118.41883 | 126 ft | 16 kts | 236° |
| 2026-04-20 21:12 | 33.94870 | -118.42036 | 125 ft | 29 kts | 232° |
| 2026-04-20 21:12 | 33.94753 | -118.42219 | 124 ft | 19 kts | 223° |
| 2026-04-20 21:12 | 33.94727 | -118.42239 | 126 ft | 0 kts | 208° |
| 2026-04-20 21:13 | 33.94713 | -118.42240 | 125 ft | 3 kts | 164° |
| 2026-04-20 21:13 | 33.94698 | -118.42211 | 126 ft | 5 kts | 105° |
| 2026-04-20 21:14 | 33.94699 | -118.42088 | 126 ft | 20 kts | 84° |
| 2026-04-20 21:14 | 33.94718 | -118.41904 | 125 ft | 24 kts | 83° |
| 2026-04-20 21:14 | 33.94739 | -118.41692 | 129 ft | 25 kts | 83° |
| 2026-04-20 21:14 | 33.94758 | -118.41501 | 127 ft | 20 kts | 83° |
| 2026-04-20 21:15 | 33.94791 | -118.41325 | 124 ft | 23 kts | 82° |
| 2026-04-20 21:15 | 33.94811 | -118.41121 | 127 ft | 24 kts | 83° |
| 2026-04-20 21:15 | 33.94831 | -118.40933 | 126 ft | 22 kts | 83° |
| 2026-04-20 21:15 | 33.94851 | -118.40727 | 127 ft | 27 kts | 83° |
| 2026-04-20 21:16 | 33.94876 | -118.40489 | 124 ft | 30 kts | 83° |
| 2026-04-20 21:16 | 33.94881 | -118.40317 | 126 ft | 9 kts | 130° |
| 2026-04-20 21:16 | 33.94833 | -118.40209 | 125 ft | 17 kts | 85° |
| 2026-04-20 21:16 | 33.94842 | -118.40034 | 129 ft | 21 kts | 108° |
| 2026-04-20 21:17 | 33.94815 | -118.40001 | 128 ft | 2 kts | 183° |
| 2026-04-20 21:17 | 33.94753 | -118.40012 | 126 ft | 9 kts | 173° |
| 2026-04-20 21:17 | 33.94712 | -118.40004 | 126 ft | 5 kts | 169° |
| 2026-04-20 21:17 | 33.94704 | -118.40005 | 127 ft | 1 kts | 199° |
| 2026-04-20 21:18 | 33.94700 | -118.40020 | 125 ft | 6 kts | 255° |
| 2026-04-20 21:18 | 33.94695 | -118.40055 | 128 ft | 2 kts | 262° |
| 2026-04-20 21:18 | 33.94694 | -118.40064 | 127 ft | 1 kts | 263° |